首页
METAR-TAF:

METAR-TAF

机场 :

塔尔萨国际机场

塔爾薩, 奧克拉荷馬州, 美国

纬度: 36-11-51N, 经度: 095-53-11W, 海拔: 206米

当前天气观测

该预报发布于1小时和1分钟前的23:53 UTC
风速4节,风向西转西北
温度 12°C
湿度 44%
气压 1015 hPa
能見度: 16.1公里
天空无云

METAR: KTUL 172353Z 30004KT 10SM CLR 12/00 A2998 RMK AO2 SLP152 T01220000 10178 20111 53006

时间: 18:54 (00:54 UTC)

预报

该预报发布于1小时和34分钟前的23:20 UTC
预报有效从18日的 00点(UTC)到 18日的 24点(UTC)
风速11节,风向西北
能見度: 10公里
天空无云
从 18日的 1200点(UTC)
风速6节,风向南转西南
能見度: 10公里
多云层高于10000英尺
从 18日的 1800点(UTC)
风速11节,风向西南
能見度: 10公里
多云层高于25000英尺

TAF: KTUL 172320Z 1800/1824 32011KT P6SM SKC FM181200 21006KT P6SM BKN100 FM181800 23011KT P6SM BKN250

超过4000个机场的气象观测和天气预报(METAR&TAF报告)。

可查询的气象台以黄色和红色小点在地图上表示。

将鼠标移到小点上方,可查看气象台名称。

然后点击查看天气观测和预报。

如需切换地图:点击带黑十字的绿色按钮放大地图;点击带横线的绿色按钮缩小地图;或者点击绿色箭头查看邻近地区的地图。


METAR-TAF: